createdAt,value
2022-08-08T00:02:30.661Z,16.16
2022-08-08T00:08:28.192Z,16.06
2022-08-08T00:14:57.502Z,16
2022-08-08T00:21:11.306Z,15.96
2022-08-08T00:27:34.945Z,15.86
2022-08-08T00:34:17.721Z,15.63
2022-08-08T00:41:08.330Z,15.38
2022-08-08T00:46:55.880Z,15.26
2022-08-08T00:53:00.131Z,15.21
2022-08-08T00:59:43.384Z,15.25
2022-08-08T01:05:59.037Z,15.19
2022-08-08T01:12:03.203Z,15.12
2022-08-08T01:18:51.184Z,15.07
2022-08-08T01:24:50.961Z,15.03
2022-08-08T01:31:10.437Z,14.91
2022-08-08T01:37:57.988Z,14.7
2022-08-08T01:43:52.271Z,14.67
2022-08-08T01:50:12.289Z,14.58
2022-08-08T01:56:37.157Z,14.48
2022-08-08T02:02:56.385Z,14.33
2022-08-08T02:09:18.284Z,14.23
2022-08-08T02:15:38.422Z,14.21
2022-08-08T02:22:01.164Z,14.13
2022-08-08T02:28:21.229Z,14.03
2022-08-08T02:35:06.517Z,13.93
2022-08-08T02:41:07.836Z,13.85
2022-08-08T02:47:27.219Z,13.81
2022-08-08T02:53:47.298Z,13.76
2022-08-08T03:00:16.075Z,13.74
2022-08-08T03:06:34.247Z,13.74
2022-08-08T03:13:02.197Z,13.69
2022-08-08T03:19:13.165Z,13.61
2022-08-08T03:25:36.516Z,13.52
2022-08-08T03:42:29.071Z,13.43
2022-08-08T03:49:10.257Z,13.35
2022-08-08T03:55:10.027Z,13.27
2022-08-08T04:01:26.733Z,13.25
2022-08-08T04:07:46.216Z,13.28
2022-08-08T04:14:33.690Z,13.27
2022-08-08T04:20:29.170Z,13.2
2022-08-08T04:26:57.887Z,13.13
2022-08-08T04:33:12.373Z,13.15
2022-08-08T04:39:48.471Z,13.18
2022-08-08T04:45:55.148Z,13.15
2022-08-08T04:52:26.557Z,13.07
2022-08-08T04:58:38.342Z,12.99
2022-08-08T05:05:01.276Z,13
2022-08-08T05:11:22.461Z,13.03
2022-08-08T05:17:54.106Z,13.08
2022-08-08T05:24:08.480Z,13.05
2022-08-08T05:30:28.360Z,13.15
2022-08-08T05:36:47.144Z,13.4
2022-08-08T05:43:15.730Z,13.67
2022-08-08T05:49:31.103Z,13.92
2022-08-08T05:56:05.139Z,14.17
2022-08-08T06:02:13.131Z,14.38
2022-08-08T06:08:36.166Z,14.58
2022-08-08T06:14:56.159Z,14.76
2022-08-08T06:21:28.738Z,14.94
2022-08-08T06:27:39.227Z,15.13
2022-08-08T06:34:26.824Z,15.37
2022-08-08T06:40:25.804Z,15.61
2022-08-08T06:46:45.192Z,15.86
2022-08-08T06:53:09.503Z,16.13
2022-08-08T06:59:28.266Z,16.35
2022-08-08T07:05:52.789Z,16.54
2022-08-08T07:12:12.549Z,16.8
2022-08-08T07:18:34.923Z,17.04
2022-08-08T07:24:54.193Z,17.28
2022-08-08T07:31:14.176Z,17.53
2022-08-08T07:37:49.916Z,17.79
2022-08-08T07:43:57.165Z,18.02
2022-08-08T07:50:22.050Z,18.32
2022-08-08T07:56:40.180Z,18.55
2022-08-08T08:03:03.202Z,18.77
2022-08-08T08:09:23.153Z,19.11
2022-08-08T08:15:46.189Z,19.46
2022-08-08T08:22:07.894Z,19.78
2022-08-08T08:28:29.156Z,19.94
2022-08-08T08:34:49.349Z,20.17
2022-08-08T08:41:13.186Z,20.44
2022-08-08T08:57:37.086Z,21.43
2022-08-08T09:03:57.135Z,21.74
2022-08-08T09:10:20.252Z,22.15
2022-08-08T09:16:40.292Z,22.34
2022-08-08T09:23:03.143Z,22.61
2022-08-08T09:29:24.698Z,22.87
2022-08-08T09:35:48.768Z,23.19
2022-08-08T09:42:14.884Z,23.53
2022-08-08T09:48:32.405Z,23.85
2022-08-08T09:54:49.168Z,24.28
2022-08-08T10:01:14.151Z,24.67
2022-08-08T10:07:35.898Z,25.08
2022-08-08T10:13:57.253Z,25.42
2022-08-08T10:20:16.820Z,25.74
2022-08-08T10:26:52.611Z,26.03
2022-08-08T10:32:58.198Z,26.09
2022-08-08T10:39:23.108Z,26.51
2022-08-08T10:45:41.390Z,26.62
2022-08-08T10:52:04.153Z,26.8
2022-08-08T10:58:24.156Z,27.13
2022-08-08T11:04:52.846Z,27.77
2022-08-08T11:11:08.117Z,28.26
2022-08-08T11:17:59.155Z,28.18
2022-08-08T11:24:01.801Z,28.31
2022-08-08T11:30:18.849Z,28.62
2022-08-08T11:36:33.175Z,28.74
2022-08-08T11:42:56.136Z,28.5
2022-08-08T11:49:17.262Z,28.66
2022-08-08T11:55:39.154Z,29.19
2022-08-08T12:02:15.174Z,29.33
2022-08-08T12:08:22.168Z,29.36
2022-08-08T12:14:42.141Z,29.16
2022-08-08T12:21:05.185Z,29.44
2022-08-08T12:27:26.796Z,29.9
2022-08-08T12:34:01.700Z,30.28
2022-08-08T12:40:08.222Z,30.64
2022-08-08T12:46:31.142Z,30.83
2022-08-08T12:52:51.193Z,30.91
2022-08-08T12:59:14.448Z,31.36
2022-08-08T13:06:02.331Z,32.08
2022-08-08T13:12:19.660Z,32.34
2022-08-08T13:18:22.042Z,32.04
2022-08-08T13:24:46.380Z,32.14
2022-08-08T13:31:00.623Z,31.99
2022-08-08T13:37:28.396Z,32.04
2022-08-08T13:43:43.191Z,32.23
2022-08-08T13:50:34.298Z,32.03
2022-08-08T13:56:26.173Z,32.02
2022-08-08T14:02:49.150Z,32.07
2022-08-08T14:09:18.748Z,32.13
2022-08-08T14:32:34.295Z,31.7
2022-08-08T14:38:58.561Z,31.58
2022-08-08T14:45:18.262Z,30.92
2022-08-08T14:51:47.425Z,30.4
2022-08-08T14:58:01.035Z,30.4
2022-08-08T15:04:23.188Z,30.41
2022-08-08T15:10:43.152Z,30.42
2022-08-08T15:17:06.175Z,30.55
2022-08-08T15:23:33.141Z,30.75
2022-08-08T15:29:49.152Z,30.73
2022-08-08T15:36:09.193Z,30.51
2022-08-08T15:42:32.955Z,30.25
2022-08-08T15:48:52.173Z,30.14
2022-08-08T15:55:15.183Z,30.3
2022-08-08T16:01:40.279Z,30.46
2022-08-08T16:07:58.176Z,30.57
2022-08-08T16:14:32.479Z,30.76
2022-08-08T16:20:41.171Z,30.81
2022-08-08T16:27:01.150Z,31.16
2022-08-08T16:33:29.532Z,31.24
2022-08-08T16:40:00.147Z,31.34
2022-08-08T16:46:35.876Z,31.1
2022-08-08T16:54:58.301Z,30.79
2022-08-08T16:58:50.171Z,30.84
2022-08-08T17:05:12.819Z,30.46
2022-08-08T17:11:39.639Z,30.28
2022-08-08T17:18:01.971Z,30.12
2022-08-08T17:24:20.633Z,29.78
2022-08-08T17:30:36.161Z,29.58
2022-08-08T17:37:01.299Z,29.51
2022-08-08T17:43:19.196Z,29.31
2022-08-08T17:49:42.771Z,28.97
2022-08-08T17:56:04.285Z,28.39
2022-08-08T18:02:26.108Z,27.93
2022-08-08T18:08:45.331Z,27.47
2022-08-08T18:15:09.785Z,27.12
2022-08-08T18:21:35.798Z,26.75
2022-08-08T18:27:51.219Z,26.45
2022-08-08T18:34:25.263Z,26.19
2022-08-08T18:40:35.007Z,25.98
2022-08-08T18:46:57.864Z,25.78
2022-08-08T18:53:17.202Z,25.59
2022-08-08T18:59:38.351Z,25.35
2022-08-08T19:06:00.187Z,25.14
2022-08-08T19:12:26.294Z,24.93
2022-08-08T19:18:47.812Z,24.72
2022-08-08T19:25:03.245Z,24.5
2022-08-08T19:31:31.250Z,24.32
2022-08-08T19:37:46.946Z,24.13
2022-08-08T19:44:12.715Z,23.93
2022-08-08T20:08:30.396Z,23.36
2022-08-08T20:14:33.183Z,23.21
2022-08-08T20:20:51.146Z,23.05
2022-08-08T20:27:11.167Z,22.76
2022-08-08T20:34:26.956Z,22.54
2022-08-08T20:39:51.527Z,22.46
2022-08-08T20:46:13.150Z,22.4
2022-08-08T20:52:33.320Z,22.32
2022-08-08T20:58:56.230Z,22.2
2022-08-08T21:05:16.137Z,22.09
2022-08-08T21:11:50.991Z,21.99
2022-08-08T21:17:59.171Z,21.85
2022-08-08T21:24:30.127Z,21.61
2022-08-08T21:30:42.405Z,21.42
2022-08-08T21:37:11.538Z,21.34
2022-08-08T21:43:25.171Z,21.22
2022-08-08T21:49:48.257Z,21.07
2022-08-08T21:56:19.004Z,20.82
2022-08-08T22:20:28.131Z,20.16
2022-08-08T22:27:01.036Z,20.08
2022-08-08T22:33:22.419Z,19.93
2022-08-08T22:39:39.655Z,19.77
2022-08-08T22:45:53.198Z,19.64
2022-08-08T22:52:13.246Z,19.52
2022-08-08T22:58:36.164Z,19.44
2022-08-08T23:04:56.240Z,19.38
2022-08-08T23:11:19.166Z,19.29
2022-08-08T23:17:46.683Z,19.15
2022-08-08T23:24:02.172Z,18.97
2022-08-08T23:30:22.152Z,18.82
2022-08-08T23:36:45.342Z,18.7
2022-08-08T23:43:05.207Z,18.56
2022-08-08T23:49:28.290Z,18.48
2022-08-08T23:55:48.188Z,18.36
